createdAt,value
2022-09-12T00:00:17.046Z,26.20
2022-09-12T00:02:44.703Z,26.30
2022-09-12T00:05:12.465Z,26.30
2022-09-12T00:07:40.955Z,26.30
2022-09-12T00:10:12.553Z,26.40
2022-09-12T00:12:41.479Z,26.40
2022-09-12T00:15:09.442Z,26.40
2022-09-12T00:17:39.236Z,26.50
2022-09-12T00:20:09.567Z,26.50
2022-09-12T00:22:37.658Z,26.60
2022-09-12T00:25:06.764Z,26.70
2022-09-12T00:27:34.857Z,26.70
2022-09-12T00:30:02.598Z,26.80
2022-09-12T00:32:30.372Z,26.80
2022-09-12T00:34:58.658Z,26.90
2022-09-12T00:37:26.523Z,26.90
2022-09-12T00:40:02.594Z,27.00
2022-09-12T00:42:33.563Z,27.10
2022-09-12T00:45:06.039Z,27.10
2022-09-12T00:47:35.530Z,27.20
2022-09-12T00:50:21.728Z,27.20
2022-09-12T00:52:58.704Z,27.30
2022-09-12T00:55:28.651Z,27.30
2022-09-12T00:57:58.716Z,27.40
2022-09-12T01:00:28.657Z,27.40
2022-09-12T01:03:02.250Z,27.40
2022-09-12T01:05:32.970Z,27.50
2022-09-12T01:08:01.953Z,27.50
2022-09-12T01:10:30.183Z,27.60
2022-09-12T01:12:58.053Z,27.70
2022-09-12T01:15:26.481Z,27.70
2022-09-12T01:18:09.091Z,27.80
2022-09-12T01:20:59.315Z,27.80
2022-09-12T01:23:36.596Z,27.90
2022-09-12T01:26:23.966Z,27.90
2022-09-12T01:29:14.568Z,27.90
2022-09-12T01:31:48.936Z,28.00
2022-09-12T01:34:39.360Z,28.00
2022-09-12T01:37:23.862Z,28.10
2022-09-12T01:40:03.862Z,28.10
2022-09-12T01:42:36.253Z,28.20
2022-09-12T01:45:10.525Z,28.30
2022-09-12T01:47:57.927Z,28.40
2022-09-12T01:50:28.325Z,28.40
2022-09-12T01:53:06.414Z,28.40
2022-09-12T01:55:40.424Z,28.40
2022-09-12T01:58:53.987Z,28.40
2022-09-12T02:04:35.506Z,28.60
2022-09-12T02:07:08.695Z,28.70
2022-09-12T02:09:43.853Z,28.70
2022-09-12T02:12:12.728Z,28.80
2022-09-12T02:14:43.589Z,28.80
2022-09-12T02:20:03.466Z,29.00
2022-09-12T02:22:32.529Z,29.10
2022-09-12T02:25:04.497Z,29.10
2022-09-12T02:27:51.854Z,29.20
2022-09-12T02:30:32.794Z,29.20
2022-09-12T02:33:13.388Z,29.30
2022-09-12T02:35:53.244Z,29.40
2022-09-12T02:38:36.491Z,29.40
2022-09-12T02:41:05.336Z,29.40
2022-09-12T02:43:33.151Z,29.40
2022-09-12T02:46:04.614Z,29.50
2022-09-12T02:48:34.871Z,29.50
2022-09-12T02:51:06.874Z,29.60
2022-09-12T02:53:48.903Z,29.70
2022-09-12T02:56:20.705Z,29.70
2022-09-12T02:58:48.820Z,29.70
2022-09-12T03:01:36.373Z,29.80
2022-09-12T03:04:17.163Z,29.80
2022-09-12T03:06:59.585Z,29.80
2022-09-12T03:09:46.986Z,29.90
2022-09-12T03:12:25.414Z,30.00
2022-09-12T03:15:07.654Z,30.10
2022-09-12T03:17:57.015Z,30.20
2022-09-12T03:20:40.275Z,30.20
2022-09-12T03:23:27.756Z,30.20
2022-09-12T03:25:58.178Z,30.30
2022-09-12T03:28:26.418Z,30.40
2022-09-12T03:30:55.232Z,30.40
2022-09-12T03:33:41.347Z,30.50
2022-09-12T03:36:21.318Z,30.60
2022-09-12T03:38:49.066Z,30.60
2022-09-12T03:41:17.099Z,30.60
2022-09-12T03:43:45.478Z,30.70
2022-09-12T03:46:15.029Z,30.70
2022-09-12T03:48:44.489Z,30.70
2022-09-12T03:51:12.697Z,30.70
2022-09-12T03:53:40.955Z,30.80
2022-09-12T03:56:12.615Z,30.80
2022-09-12T03:58:43.552Z,30.80
2022-09-12T04:01:13.345Z,30.90
2022-09-12T04:03:50.079Z,30.90
2022-09-12T04:06:21.384Z,30.90
2022-09-12T04:08:51.231Z,30.90
2022-09-12T04:11:20.159Z,30.90
2022-09-12T04:13:48.793Z,30.90
2022-09-12T04:16:17.912Z,30.90
2022-09-12T04:18:46.089Z,30.90
2022-09-12T04:21:19.417Z,31.00
2022-09-12T04:23:48.617Z,31.00
2022-09-12T04:26:18.677Z,31.10
2022-09-12T04:28:51.462Z,31.20
2022-09-12T04:31:23.926Z,31.10
2022-09-12T04:34:05.586Z,31.20
2022-09-12T04:36:34.681Z,31.30
2022-09-12T04:39:03.822Z,31.30
2022-09-12T04:41:33.194Z,31.40
2022-09-12T04:44:08.558Z,31.50
2022-09-12T04:46:37.191Z,31.50
2022-09-12T04:49:05.313Z,31.50
2022-09-12T04:57:04.726Z,31.70
2022-09-12T04:59:33.630Z,31.80
2022-09-12T05:02:01.626Z,31.80
2022-09-12T05:04:30.296Z,31.80
2022-09-12T05:06:59.080Z,31.80
2022-09-12T05:09:26.774Z,32.00
2022-09-12T05:12:05.296Z,32.00
2022-09-12T05:14:34.431Z,32.00
2022-09-12T05:17:03.518Z,32.00
2022-09-12T05:19:31.773Z,32.00
2022-09-12T05:21:59.513Z,32.00
2022-09-12T05:24:28.346Z,32.00
2022-09-12T05:26:56.966Z,32.00
2022-09-12T05:29:27.878Z,32.00
2022-09-12T05:31:58.438Z,31.90
2022-09-12T05:34:26.150Z,31.90
2022-09-12T05:36:57.939Z,31.90
2022-09-12T05:39:27.033Z,31.90
2022-09-12T05:44:43.004Z,31.90
2022-09-12T05:47:18.079Z,31.90
2022-09-12T05:49:48.459Z,31.80
2022-09-12T05:52:21.394Z,31.80
2022-09-12T05:55:11.933Z,31.80
2022-09-12T05:57:46.626Z,31.80
2022-09-12T06:00:18.389Z,31.70
2022-09-12T06:02:49.114Z,31.70
2022-09-12T06:05:16.808Z,31.70
2022-09-12T06:07:52.101Z,31.70
2022-09-12T06:10:21.811Z,31.60
2022-09-12T06:12:50.926Z,31.50
2022-09-12T06:15:19.065Z,31.30
2022-09-12T06:17:52.980Z,31.00
2022-09-12T06:20:23.347Z,30.90
2022-09-12T06:22:54.225Z,30.70
2022-09-12T06:25:23.066Z,30.60
2022-09-12T06:27:52.012Z,30.60
2022-09-12T06:30:24.757Z,30.50
2022-09-12T06:32:54.538Z,30.40
2022-09-12T06:35:22.226Z,30.20
2022-09-12T06:37:54.120Z,30.20
2022-09-12T06:40:22.890Z,30.10
2022-09-12T06:42:51.495Z,30.00
2022-09-12T06:45:23.147Z,30.00
2022-09-12T06:47:53.142Z,29.90
2022-09-12T06:50:22.755Z,29.90
2022-09-12T06:52:55.084Z,29.90
2022-09-12T06:55:27.849Z,29.80
2022-09-12T06:57:56.828Z,29.80
2022-09-12T07:00:28.381Z,29.80
2022-09-12T07:02:59.179Z,29.70
2022-09-12T07:05:29.930Z,29.60
2022-09-12T07:07:58.607Z,29.50
2022-09-12T07:10:28.060Z,29.50
2022-09-12T07:13:02.538Z,29.40
2022-09-12T07:15:30.253Z,29.30
2022-09-12T07:18:29.266Z,29.20
2022-09-12T07:21:10.071Z,29.20
2022-09-12T07:26:17.429Z,29.10
2022-09-12T07:29:00.562Z,29.10
2022-09-12T07:31:39.045Z,29.00
2022-09-12T07:34:07.748Z,29.10
2022-09-12T07:36:37.049Z,29.00
2022-09-12T07:39:04.769Z,29.00
2022-09-12T07:41:36.166Z,28.90
2022-09-12T07:44:07.341Z,28.90
2022-09-12T07:46:35.855Z,28.90
2022-09-12T07:49:05.176Z,28.80
2022-09-12T07:51:36.991Z,28.80
2022-09-12T07:54:11.491Z,28.80
2022-09-12T07:56:39.694Z,28.80
2022-09-12T07:59:08.885Z,28.80
2022-09-12T08:01:37.671Z,28.80
2022-09-12T08:04:05.654Z,28.80
2022-09-12T08:06:36.336Z,28.80
2022-09-12T08:09:05.548Z,28.80
2022-09-12T08:11:33.318Z,28.90
2022-09-12T08:14:03.637Z,28.80
2022-09-12T08:16:33.220Z,28.90
2022-09-12T08:19:04.056Z,28.90
2022-09-12T08:21:33.844Z,28.90
2022-09-12T08:24:03.154Z,28.80
2022-09-12T08:26:32.643Z,28.90
2022-09-12T08:29:00.404Z,28.80
2022-09-12T08:31:28.725Z,28.80
2022-09-12T08:33:59.842Z,28.80
2022-09-12T08:36:31.239Z,28.90
2022-09-12T08:39:05.053Z,28.90
2022-09-12T08:41:35.840Z,28.80
2022-09-12T08:44:23.676Z,28.80
2022-09-12T08:47:11.067Z,28.80
2022-09-12T08:50:00.639Z,28.80
2022-09-12T08:52:48.897Z,28.80
2022-09-12T08:55:32.573Z,28.70
2022-09-12T08:58:01.594Z,28.70
2022-09-12T09:00:39.335Z,28.60
2022-09-12T09:03:22.190Z,28.70
2022-09-12T09:06:01.552Z,28.60
2022-09-12T09:08:49.744Z,28.60
2022-09-12T09:11:31.082Z,28.60
2022-09-12T09:14:30.560Z,28.60
2022-09-12T09:17:01.519Z,28.60
2022-09-12T09:19:34.172Z,28.60
2022-09-12T09:22:06.236Z,28.70
2022-09-12T09:24:38.437Z,28.60
2022-09-12T09:27:29.891Z,28.70
2022-09-12T09:29:57.679Z,28.70
2022-09-12T09:32:34.309Z,28.70
2022-09-12T09:35:03.299Z,28.70
2022-09-12T09:37:43.226Z,28.70
2022-09-12T09:40:26.494Z,28.70
2022-09-12T09:43:02.428Z,28.70
2022-09-12T09:45:33.250Z,28.70
2022-09-12T09:48:05.443Z,28.70
2022-09-12T09:50:34.261Z,28.70
2022-09-12T09:53:06.611Z,28.70
2022-09-12T09:55:41.701Z,28.70
2022-09-12T09:58:09.577Z,28.70
2022-09-12T10:00:38.375Z,28.70
2022-09-12T10:03:26.809Z,28.70
2022-09-12T10:05:56.783Z,28.70
2022-09-12T10:08:29.149Z,28.70
2022-09-12T10:10:58.601Z,28.70
2022-09-12T10:13:42.281Z,28.70
2022-09-12T10:16:23.763Z,28.60
2022-09-12T10:18:53.000Z,28.60
2022-09-12T10:21:41.807Z,28.60
2022-09-12T10:24:22.770Z,28.50
2022-09-12T10:26:56.959Z,28.50
2022-09-12T10:29:28.803Z,28.50
2022-09-12T10:32:02.523Z,28.50
2022-09-12T10:34:33.112Z,28.40
2022-09-12T10:37:08.108Z,28.40
2022-09-12T10:39:37.148Z,28.30
2022-09-12T10:42:06.234Z,28.30
2022-09-12T10:44:35.210Z,28.30
2022-09-12T10:47:22.498Z,28.30
2022-09-12T10:49:52.394Z,28.20
2022-09-12T10:52:27.369Z,28.10
2022-09-12T10:54:56.000Z,28.10
2022-09-12T10:57:45.036Z,28.10
2022-09-12T11:00:16.473Z,28.00
2022-09-12T11:02:58.761Z,28.00
2022-09-12T11:05:39.572Z,28.00
2022-09-12T11:08:19.559Z,27.90
2022-09-12T11:11:00.393Z,27.90
2022-09-12T11:13:41.212Z,27.90
2022-09-12T11:16:28.545Z,27.90
2022-09-12T11:19:15.870Z,27.80
2022-09-12T11:21:55.769Z,27.80
2022-09-12T11:24:35.786Z,27.80
2022-09-12T11:27:16.572Z,27.80
2022-09-12T11:30:03.900Z,27.70
2022-09-12T11:32:43.772Z,27.70
2022-09-12T11:35:25.955Z,27.70
2022-09-12T11:38:05.923Z,27.60
2022-09-12T11:40:55.793Z,27.60
2022-09-12T11:43:43.004Z,27.50
2022-09-12T11:46:30.586Z,27.60
2022-09-12T11:49:00.535Z,27.50
2022-09-12T11:51:41.415Z,27.50
2022-09-12T11:54:21.630Z,27.50
2022-09-12T11:56:51.831Z,27.40
2022-09-12T11:59:39.680Z,27.40
2022-09-12T12:02:12.365Z,27.40
2022-09-12T12:04:46.211Z,27.40
2022-09-12T12:07:13.883Z,27.40
2022-09-12T12:09:49.827Z,27.30
2022-09-12T12:12:21.726Z,27.30
2022-09-12T12:14:50.970Z,27.30
2022-09-12T12:17:21.305Z,27.30
2022-09-12T12:20:00.020Z,27.30
2022-09-12T12:22:30.275Z,27.30
2022-09-12T12:25:10.519Z,27.30
2022-09-12T12:27:49.651Z,27.30
2022-09-12T12:30:29.913Z,27.30
2022-09-12T12:33:01.081Z,27.30
2022-09-12T12:35:49.256Z,27.30
2022-09-12T12:38:30.913Z,27.30
2022-09-12T12:41:10.862Z,27.30
2022-09-12T12:43:39.394Z,27.30
2022-09-12T12:46:08.770Z,27.30
2022-09-12T12:48:44.112Z,27.40
2022-09-12T12:51:24.930Z,27.30
2022-09-12T12:53:53.255Z,27.40
2022-09-12T12:56:28.087Z,27.40
2022-09-12T12:59:00.973Z,27.40
2022-09-12T13:01:28.990Z,27.40
2022-09-12T13:03:59.704Z,27.40
2022-09-12T13:06:38.144Z,27.30
2022-09-12T13:09:09.228Z,27.30
2022-09-12T13:11:40.129Z,27.30
2022-09-12T13:14:19.997Z,27.30
2022-09-12T13:16:59.953Z,27.30
2022-09-12T13:19:33.711Z,27.20
2022-09-12T13:22:02.888Z,27.20
2022-09-12T13:24:31.655Z,27.20
2022-09-12T13:27:00.246Z,27.20
2022-09-12T13:29:28.731Z,27.20
2022-09-12T13:31:57.734Z,27.20
2022-09-12T13:34:32.583Z,27.20
2022-09-12T13:37:12.575Z,27.20
2022-09-12T13:39:59.875Z,27.10
2022-09-12T13:42:38.628Z,27.10
2022-09-12T13:45:24.387Z,27.00
2022-09-12T13:47:58.845Z,27.00
2022-09-12T13:50:37.544Z,27.00
2022-09-12T13:53:07.178Z,27.00
2022-09-12T13:55:42.266Z,26.90
2022-09-12T13:58:23.100Z,26.90
2022-09-12T14:01:03.097Z,26.80
2022-09-12T14:03:44.789Z,26.80
2022-09-12T14:06:13.133Z,26.80
2022-09-12T14:08:41.949Z,26.80
2022-09-12T14:11:11.379Z,26.80
2022-09-12T14:13:39.647Z,26.90
2022-09-12T14:16:11.355Z,26.90
2022-09-12T14:18:40.450Z,26.90
2022-09-12T14:21:13.166Z,26.90
2022-09-12T14:23:42.452Z,26.80
2022-09-12T14:26:12.449Z,26.80
2022-09-12T14:28:43.217Z,26.80
2022-09-12T14:31:22.741Z,26.80
2022-09-12T14:33:54.846Z,26.80
2022-09-12T14:36:32.602Z,26.80
2022-09-12T14:39:02.224Z,26.80
2022-09-12T14:41:31.814Z,26.80
2022-09-12T14:44:00.649Z,26.80
2022-09-12T14:46:31.276Z,26.80
2022-09-12T14:49:02.537Z,26.80
2022-09-12T14:51:35.545Z,26.80
2022-09-12T14:54:03.328Z,26.70
2022-09-12T14:56:41.701Z,26.70
2022-09-12T14:59:21.683Z,26.70
2022-09-12T15:01:49.374Z,26.70
2022-09-12T15:04:36.729Z,26.60
2022-09-12T15:07:15.017Z,26.70
2022-09-12T15:09:47.232Z,26.60
2022-09-12T15:12:15.171Z,26.60
2022-09-12T15:14:42.998Z,26.60
2022-09-12T15:17:10.668Z,26.60
2022-09-12T15:19:38.344Z,26.60
2022-09-12T15:22:06.993Z,26.60
2022-09-12T15:24:34.685Z,26.60
2022-09-12T15:27:02.663Z,26.50
2022-09-12T15:29:30.335Z,26.50
2022-09-12T15:31:58.031Z,26.50
2022-09-12T15:34:25.679Z,26.50
2022-09-12T15:36:53.395Z,26.50
2022-09-12T15:39:21.101Z,26.50
2022-09-12T15:41:48.826Z,26.50
2022-09-12T15:44:16.494Z,26.50
2022-09-12T15:46:44.253Z,26.50
2022-09-12T15:49:11.914Z,26.50
2022-09-12T15:51:41.291Z,26.50
2022-09-12T15:54:13.995Z,26.50
2022-09-12T15:56:42.599Z,26.40
2022-09-12T15:59:10.256Z,26.40
2022-09-12T16:01:38.072Z,26.40
2022-09-12T16:04:20.627Z,26.40
2022-09-12T16:06:48.424Z,26.40
2022-09-12T16:09:17.021Z,26.40
2022-09-12T16:11:45.571Z,26.40
2022-09-12T16:14:15.161Z,26.40
2022-09-12T16:16:43.473Z,26.30
2022-09-12T16:19:12.201Z,26.30
2022-09-12T16:21:39.890Z,26.30
2022-09-12T16:24:07.582Z,26.30
2022-09-12T16:26:36.457Z,26.20
2022-09-12T16:29:04.211Z,26.20
2022-09-12T16:31:32.142Z,26.20
2022-09-12T16:33:59.952Z,26.20
2022-09-12T16:36:27.612Z,26.20
2022-09-12T16:38:55.315Z,26.20
2022-09-12T16:41:26.331Z,26.20
2022-09-12T16:43:54.538Z,26.20
2022-09-12T16:46:26.661Z,26.30
2022-09-12T16:48:56.513Z,26.30
2022-09-12T16:51:26.284Z,26.30
2022-09-12T16:53:55.847Z,26.30
2022-09-12T16:56:24.995Z,26.20
2022-09-12T16:58:53.662Z,26.30
2022-09-12T17:01:22.420Z,26.30
2022-09-12T17:03:53.648Z,26.30
2022-09-12T17:06:22.217Z,26.30
2022-09-12T17:08:52.498Z,26.30
2022-09-12T17:11:22.891Z,26.30
2022-09-12T17:14:07.425Z,26.30
2022-09-12T17:16:36.390Z,26.20
2022-09-12T17:19:04.810Z,26.20
2022-09-12T17:21:32.447Z,26.20
2022-09-12T17:24:00.147Z,26.10
2022-09-12T17:26:28.049Z,26.10
2022-09-12T17:28:56.644Z,26.10
2022-09-12T17:31:24.486Z,26.10
2022-09-12T17:33:55.962Z,26.10
2022-09-12T17:36:24.474Z,26.10
2022-09-12T17:38:53.031Z,26.00
2022-09-12T17:41:22.221Z,26.00
2022-09-12T17:43:52.182Z,26.00
2022-09-12T17:46:20.319Z,26.00
2022-09-12T17:48:55.996Z,26.00
2022-09-12T17:51:25.365Z,26.00
2022-09-12T17:53:58.497Z,26.00
2022-09-12T17:56:28.304Z,26.00
2022-09-12T17:58:56.777Z,26.00
2022-09-12T18:01:37.019Z,26.00
2022-09-12T18:04:05.098Z,26.00
2022-09-12T18:06:33.884Z,26.10
2022-09-12T18:09:02.708Z,26.10
2022-09-12T18:11:30.449Z,26.10
2022-09-12T18:14:01.514Z,26.10
2022-09-12T18:16:31.740Z,26.10
2022-09-12T18:19:01.721Z,26.10
2022-09-12T18:21:29.620Z,26.10
2022-09-12T18:23:59.358Z,26.10
2022-09-12T18:26:28.415Z,26.10
2022-09-12T18:28:56.461Z,26.10
2022-09-12T18:31:28.207Z,26.00
2022-09-12T18:33:57.192Z,26.00
2022-09-12T18:36:25.166Z,26.00
2022-09-12T18:38:52.783Z,25.90
2022-09-12T18:41:21.691Z,25.90
2022-09-12T18:43:50.103Z,25.90
2022-09-12T18:46:19.080Z,25.90
2022-09-12T18:48:47.221Z,25.90
2022-09-12T18:51:16.291Z,25.90
2022-09-12T18:53:44.175Z,25.90
2022-09-12T18:56:13.536Z,25.90
2022-09-12T18:58:43.992Z,25.90
2022-09-12T19:01:16.756Z,25.90
2022-09-12T19:03:44.651Z,25.90
2022-09-12T19:06:16.202Z,25.90
2022-09-12T19:08:46.637Z,25.90
2022-09-12T19:11:15.228Z,25.90
2022-09-12T19:13:44.011Z,25.90
2022-09-12T19:16:14.646Z,25.90
2022-09-12T19:18:43.641Z,25.80
2022-09-12T19:21:16.332Z,25.80
2022-09-12T19:23:45.160Z,25.80
2022-09-12T19:26:14.109Z,25.80
2022-09-12T19:28:42.986Z,25.80
2022-09-12T19:31:12.500Z,25.80
2022-09-12T19:33:40.922Z,25.80
2022-09-12T19:36:22.172Z,25.80
2022-09-12T19:38:55.394Z,25.80
2022-09-12T19:41:23.065Z,25.80
2022-09-12T19:43:51.094Z,25.80
2022-09-12T19:46:21.437Z,25.90
2022-09-12T19:48:50.302Z,25.80
2022-09-12T19:51:18.179Z,25.80
2022-09-12T19:53:46.389Z,25.80
2022-09-12T19:56:15.163Z,25.80
2022-09-12T19:58:44.612Z,25.80
2022-09-12T20:01:13.851Z,25.80
2022-09-12T20:03:42.722Z,25.80
2022-09-12T20:06:11.627Z,25.80
2022-09-12T20:08:41.766Z,25.80
2022-09-12T20:11:10.201Z,25.80
2022-09-12T20:13:37.937Z,25.80
2022-09-12T20:16:20.427Z,25.80
2022-09-12T20:18:49.790Z,25.80
2022-09-12T20:21:19.204Z,25.80
2022-09-12T20:23:47.389Z,25.80
2022-09-12T20:26:15.498Z,25.80
2022-09-12T20:28:43.251Z,25.70
2022-09-12T20:31:12.296Z,25.70
2022-09-12T20:33:40.096Z,25.80
2022-09-12T20:36:12.602Z,25.70
2022-09-12T20:38:41.330Z,25.70
2022-09-12T20:41:10.282Z,25.60
2022-09-12T20:43:39.078Z,25.60
2022-09-12T20:46:08.070Z,25.60
2022-09-12T20:48:35.759Z,25.60
2022-09-12T20:51:03.412Z,25.60
2022-09-12T20:53:34.818Z,25.60
2022-09-12T20:56:03.801Z,25.60
2022-09-12T20:58:31.775Z,25.60
2022-09-12T21:01:01.904Z,25.60
2022-09-12T21:03:30.466Z,25.60
2022-09-12T21:05:58.214Z,25.60
2022-09-12T21:08:26.775Z,25.60
2022-09-12T21:10:54.373Z,25.60
2022-09-12T21:13:21.998Z,25.60
2022-09-12T21:15:50.065Z,25.60
2022-09-12T21:18:17.720Z,25.60
2022-09-12T21:20:51.628Z,25.70
2022-09-12T21:23:19.405Z,25.70
2022-09-12T21:25:52.353Z,25.70
2022-09-12T21:28:20.865Z,25.60
2022-09-12T21:30:49.176Z,25.70
2022-09-12T21:33:17.280Z,25.70
2022-09-12T21:35:45.012Z,25.70
2022-09-12T21:38:12.838Z,25.60
2022-09-12T21:40:41.600Z,25.60
2022-09-12T21:43:12.551Z,25.60
2022-09-12T21:45:41.055Z,25.60
2022-09-12T21:48:08.726Z,25.50
2022-09-12T21:50:37.355Z,25.60
2022-09-12T21:53:05.036Z,25.60
2022-09-12T21:55:32.702Z,25.60
2022-09-12T21:58:00.362Z,25.50
2022-09-12T22:00:29.048Z,25.50
2022-09-12T22:02:56.759Z,25.50
2022-09-12T22:05:25.833Z,25.50
2022-09-12T22:07:53.499Z,25.50
2022-09-12T22:10:21.180Z,25.50
2022-09-12T22:12:49.289Z,25.50
2022-09-12T22:15:38.941Z,25.50
2022-09-12T22:18:06.529Z,25.50
2022-09-12T22:20:34.234Z,25.50
2022-09-12T22:23:14.103Z,25.60
2022-09-12T22:25:41.880Z,25.60
2022-09-12T22:28:09.560Z,25.50
2022-09-12T22:30:37.870Z,25.50
2022-09-12T22:33:06.417Z,25.50
2022-09-12T22:35:34.106Z,25.50
2022-09-12T22:38:01.712Z,25.50
2022-09-12T22:40:29.271Z,25.50
2022-09-12T22:42:57.730Z,25.50
2022-09-12T22:45:26.195Z,25.40
2022-09-12T22:47:54.152Z,25.40
2022-09-12T22:50:21.849Z,25.40
2022-09-12T22:52:49.462Z,25.40
2022-09-12T22:55:17.193Z,25.40
2022-09-12T22:57:45.682Z,25.40
2022-09-12T23:00:13.614Z,25.40
2022-09-12T23:02:41.661Z,25.40
2022-09-12T23:05:09.484Z,25.40
2022-09-12T23:07:37.171Z,25.40
2022-09-12T23:10:05.329Z,25.40
2022-09-12T23:12:33.936Z,25.40
2022-09-12T23:15:01.537Z,25.40
2022-09-12T23:17:29.139Z,25.40
2022-09-12T23:19:57.764Z,25.40
2022-09-12T23:22:25.689Z,25.30
2022-09-12T23:24:53.591Z,25.40
2022-09-12T23:27:21.253Z,25.30
2022-09-12T23:29:52.626Z,25.30
2022-09-12T23:32:22.257Z,25.30
2022-09-12T23:34:49.961Z,25.30
2022-09-12T23:37:17.711Z,25.30
2022-09-12T23:39:45.555Z,25.40
2022-09-12T23:42:14.002Z,25.40
2022-09-12T23:44:42.511Z,25.40
2022-09-12T23:47:10.213Z,25.50
2022-09-12T23:49:38.850Z,25.50
2022-09-12T23:52:06.474Z,25.50
2022-09-12T23:54:34.033Z,25.50
2022-09-12T23:57:01.682Z,25.60
2022-09-12T23:59:32.161Z,25.60
